City by the Sea, Texas
Current Conditions -  °F | °C
As of 1:35 AM on Friday 19 Dec 2014 (Local Time) from KTFP Reporting Station
Overcast Overcast  
Wind Chill: 69°   Ceiling: 8000
Heat Index: 69°   Visibility: 10mi
Dew Point: 66°   Wind: 13mph
Humidity: 89%   Direction: 170°S
Pressure: 29.96"   Gusts: NA
Location:  27.9399°N, 97.1805°W
Report Text: KTFP 190735Z AUTO 17011KT 10SM BKN080 OVC100 21/19 A2996 RMK AO2 LTG DSNT N T02060188
Loading
Personal Weather Stations






























Interactive Weather Map New forecast layout! Learn more

10-Day Weather Forecast

Advertisements
Track Severe Weather on mobile